sensor_id;sensor_type;location;lat;lon;timestamp;P1;durP1;ratioP1;P2;durP2;ratioP2
19343;SDS011;9808;52.402;16.678;2024-02-14T00:00:54;60.80;;;26.97;;
19343;SDS011;9808;52.402;16.678;2024-02-14T00:03:22;64.83;;;29.00;;
19343;SDS011;9808;52.402;16.678;2024-02-14T00:05:50;64.17;;;27.80;;
19343;SDS011;9808;52.402;16.678;2024-02-14T00:08:18;67.70;;;29.70;;
19343;SDS011;9808;52.402;16.678;2024-02-14T00:10:47;65.30;;;26.97;;
19343;SDS011;9808;52.402;16.678;2024-02-14T00:13:15;55.13;;;24.30;;
19343;SDS011;9808;52.402;16.678;2024-02-14T00:15:44;53.80;;;24.27;;
19343;SDS011;9808;52.402;16.678;2024-02-14T00:18:13;56.93;;;25.33;;
19343;SDS011;9808;52.402;16.678;2024-02-14T00:20:41;55.40;;;24.50;;
19343;SDS011;9808;52.402;16.678;2024-02-14T00:23:09;64.43;;;26.97;;
19343;SDS011;9808;52.402;16.678;2024-02-14T00:25:37;77.53;;;31.27;;
19343;SDS011;9808;52.402;16.678;2024-02-14T00:28:05;76.47;;;32.27;;
19343;SDS011;9808;52.402;16.678;2024-02-14T00:30:32;71.17;;;30.63;;
19343;SDS011;9808;52.402;16.678;2024-02-14T00:33:00;85.00;;;33.40;;
19343;SDS011;9808;52.402;16.678;2024-02-14T00:35:28;82.90;;;33.63;;
19343;SDS011;9808;52.402;16.678;2024-02-14T00:37:55;83.03;;;34.17;;
19343;SDS011;9808;52.402;16.678;2024-02-14T00:40:23;110.43;;;47.17;;
19343;SDS011;9808;52.402;16.678;2024-02-14T00:42:50;110.57;;;46.47;;
19343;SDS011;9808;52.402;16.678;2024-02-14T00:45:17;91.70;;;36.17;;
19343;SDS011;9808;52.402;16.678;2024-02-14T00:47:45;83.37;;;33.30;;
19343;SDS011;9808;52.402;16.678;2024-02-14T00:50:12;72.17;;;31.47;;
19343;SDS011;9808;52.402;16.678;2024-02-14T00:52:40;70.47;;;30.10;;
19343;SDS011;9808;52.402;16.678;2024-02-14T00:55:08;72.43;;;30.37;;
19343;SDS011;9808;52.402;16.678;2024-02-14T00:57:35;69.37;;;29.47;;
19343;SDS011;9808;52.402;16.678;2024-02-14T01:00:02;75.60;;;29.50;;
19343;SDS011;9808;52.402;16.678;2024-02-14T01:02:30;70.07;;;27.70;;
19343;SDS011;9808;52.402;16.678;2024-02-14T01:04:58;87.67;;;31.90;;
19343;SDS011;9808;52.402;16.678;2024-02-14T01:07:26;84.63;;;32.80;;
19343;SDS011;9808;52.402;16.678;2024-02-14T01:09:53;77.70;;;31.97;;
19343;SDS011;9808;52.402;16.678;2024-02-14T01:12:20;77.77;;;30.80;;
19343;SDS011;9808;52.402;16.678;2024-02-14T01:14:47;68.93;;;30.27;;
19343;SDS011;9808;52.402;16.678;2024-02-14T01:17:14;72.70;;;31.50;;
19343;SDS011;9808;52.402;16.678;2024-02-14T01:19:42;73.33;;;31.80;;
19343;SDS011;9808;52.402;16.678;2024-02-14T01:22:10;67.37;;;30.43;;
19343;SDS011;9808;52.402;16.678;2024-02-14T01:24:37;61.67;;;30.10;;
19343;SDS011;9808;52.402;16.678;2024-02-14T01:27:05;63.10;;;29.47;;
19343;SDS011;9808;52.402;16.678;2024-02-14T01:29:34;56.67;;;26.53;;
19343;SDS011;9808;52.402;16.678;2024-02-14T01:32:02;55.47;;;24.50;;
19343;SDS011;9808;52.402;16.678;2024-02-14T01:34:30;49.00;;;21.83;;
19343;SDS011;9808;52.402;16.678;2024-02-14T01:36:58;52.60;;;23.27;;
19343;SDS011;9808;52.402;16.678;2024-02-14T01:39:25;56.20;;;24.37;;
19343;SDS011;9808;52.402;16.678;2024-02-14T01:41:52;58.07;;;25.10;;
19343;SDS011;9808;52.402;16.678;2024-02-14T01:44:19;52.47;;;23.23;;
19343;SDS011;9808;52.402;16.678;2024-02-14T01:46:46;50.90;;;21.90;;
19343;SDS011;9808;52.402;16.678;2024-02-14T01:49:14;55.87;;;24.10;;
19343;SDS011;9808;52.402;16.678;2024-02-14T01:51:43;47.33;;;21.67;;
19343;SDS011;9808;52.402;16.678;2024-02-14T01:54:12;45.83;;;21.90;;
19343;SDS011;9808;52.402;16.678;2024-02-14T01:56:39;47.53;;;22.43;;
19343;SDS011;9808;52.402;16.678;2024-02-14T01:59:07;50.27;;;22.17;;
19343;SDS011;9808;52.402;16.678;2024-02-14T02:01:36;50.33;;;22.73;;
19343;SDS011;9808;52.402;16.678;2024-02-14T02:04:03;49.23;;;22.73;;
19343;SDS011;9808;52.402;16.678;2024-02-14T02:06:31;55.17;;;24.07;;
19343;SDS011;9808;52.402;16.678;2024-02-14T02:08:59;52.30;;;23.67;;
19343;SDS011;9808;52.402;16.678;2024-02-14T02:11:27;49.97;;;24.03;;
19343;SDS011;9808;52.402;16.678;2024-02-14T02:13:54;50.87;;;23.57;;
19343;SDS011;9808;52.402;16.678;2024-02-14T02:16:22;48.10;;;22.73;;
19343;SDS011;9808;52.402;16.678;2024-02-14T02:18:49;49.53;;;23.37;;
19343;SDS011;9808;52.402;16.678;2024-02-14T02:21:17;47.23;;;22.80;;
19343;SDS011;9808;52.402;16.678;2024-02-14T02:23:49;55.10;;;25.63;;
19343;SDS011;9808;52.402;16.678;2024-02-14T02:26:17;63.90;;;27.50;;
19343;SDS011;9808;52.402;16.678;2024-02-14T02:28:44;58.40;;;26.83;;
19343;SDS011;9808;52.402;16.678;2024-02-14T02:31:12;64.40;;;28.13;;
19343;SDS011;9808;52.402;16.678;2024-02-14T02:33:39;66.43;;;29.40;;
19343;SDS011;9808;52.402;16.678;2024-02-14T02:36:07;65.40;;;29.37;;
19343;SDS011;9808;52.402;16.678;2024-02-14T02:38:36;60.50;;;29.00;;
19343;SDS011;9808;52.402;16.678;2024-02-14T02:41:04;58.00;;;28.20;;
19343;SDS011;9808;52.402;16.678;2024-02-14T02:43:34;53.27;;;25.83;;
19343;SDS011;9808;52.402;16.678;2024-02-14T02:46:01;55.23;;;25.30;;
19343;SDS011;9808;52.402;16.678;2024-02-14T02:48:28;58.10;;;25.93;;
19343;SDS011;9808;52.402;16.678;2024-02-14T02:50:58;61.70;;;24.53;;
19343;SDS011;9808;52.402;16.678;2024-02-14T02:53:25;50.07;;;24.97;;
19343;SDS011;9808;52.402;16.678;2024-02-14T02:55:53;61.83;;;28.07;;
19343;SDS011;9808;52.402;16.678;2024-02-14T02:58:20;62.23;;;27.43;;
19343;SDS011;9808;52.402;16.678;2024-02-14T03:00:47;67.53;;;28.63;;
19343;SDS011;9808;52.402;16.678;2024-02-14T03:03:19;55.63;;;26.87;;
19343;SDS011;9808;52.402;16.678;2024-02-14T03:05:48;60.93;;;26.73;;
19343;SDS011;9808;52.402;16.678;2024-02-14T03:08:15;54.90;;;24.77;;
19343;SDS011;9808;52.402;16.678;2024-02-14T03:10:42;50.50;;;24.83;;
19343;SDS011;9808;52.402;16.678;2024-02-14T03:13:12;56.37;;;25.70;;
19343;SDS011;9808;52.402;16.678;2024-02-14T03:15:39;52.73;;;23.97;;
19343;SDS011;9808;52.402;16.678;2024-02-14T03:18:06;54.83;;;23.47;;
19343;SDS011;9808;52.402;16.678;2024-02-14T03:20:34;51.87;;;23.77;;
19343;SDS011;9808;52.402;16.678;2024-02-14T03:23:02;51.60;;;23.30;;
19343;SDS011;9808;52.402;16.678;2024-02-14T03:25:34;54.83;;;24.90;;
19343;SDS011;9808;52.402;16.678;2024-02-14T03:28:03;55.13;;;25.20;;
19343;SDS011;9808;52.402;16.678;2024-02-14T03:30:35;57.37;;;27.40;;
19343;SDS011;9808;52.402;16.678;2024-02-14T03:33:02;53.10;;;26.73;;
19343;SDS011;9808;52.402;16.678;2024-02-14T03:35:30;60.90;;;27.60;;
19343;SDS011;9808;52.402;16.678;2024-02-14T03:37:59;64.60;;;29.10;;
19343;SDS011;9808;52.402;16.678;2024-02-14T03:40:26;61.83;;;27.63;;
19343;SDS011;9808;52.402;16.678;2024-02-14T03:42:56;55.03;;;26.70;;
19343;SDS011;9808;52.402;16.678;2024-02-14T03:45:23;50.90;;;25.77;;
19343;SDS011;9808;52.402;16.678;2024-02-14T03:47:50;59.30;;;25.87;;
19343;SDS011;9808;52.402;16.678;2024-02-14T03:50:18;60.87;;;26.67;;
19343;SDS011;9808;52.402;16.678;2024-02-14T03:52:45;53.40;;;26.33;;
19343;SDS011;9808;52.402;16.678;2024-02-14T03:55:13;58.60;;;27.20;;
19343;SDS011;9808;52.402;16.678;2024-02-14T03:57:40;52.70;;;25.77;;
19343;SDS011;9808;52.402;16.678;2024-02-14T04:00:08;63.10;;;28.87;;
19343;SDS011;9808;52.402;16.678;2024-02-14T04:02:37;60.73;;;28.03;;
19343;SDS011;9808;52.402;16.678;2024-02-14T04:05:06;55.50;;;27.73;;
19343;SDS011;9808;52.402;16.678;2024-02-14T04:07:33;63.50;;;27.97;;
19343;SDS011;9808;52.402;16.678;2024-02-14T04:10:01;62.37;;;28.43;;
19343;SDS011;9808;52.402;16.678;2024-02-14T04:12:28;66.90;;;29.33;;
19343;SDS011;9808;52.402;16.678;2024-02-14T04:14:55;73.37;;;31.10;;
19343;SDS011;9808;52.402;16.678;2024-02-14T04:17:23;65.93;;;29.17;;
19343;SDS011;9808;52.402;16.678;2024-02-14T04:19:51;68.03;;;29.47;;
19343;SDS011;9808;52.402;16.678;2024-02-14T04:22:18;54.37;;;26.97;;
19343;SDS011;9808;52.402;16.678;2024-02-14T04:24:46;52.50;;;25.90;;
19343;SDS011;9808;52.402;16.678;2024-02-14T04:27:13;56.37;;;25.40;;
19343;SDS011;9808;52.402;16.678;2024-02-14T04:29:40;52.13;;;25.40;;
19343;SDS011;9808;52.402;16.678;2024-02-14T04:32:11;46.50;;;22.57;;
19343;SDS011;9808;52.402;16.678;2024-02-14T04:34:39;53.60;;;23.80;;
19343;SDS011;9808;52.402;16.678;2024-02-14T04:37:08;54.30;;;24.57;;
19343;SDS011;9808;52.402;16.678;2024-02-14T04:39:44;48.73;;;22.97;;
19343;SDS011;9808;52.402;16.678;2024-02-14T04:42:12;53.80;;;24.17;;
19343;SDS011;9808;52.402;16.678;2024-02-14T04:44:39;51.17;;;23.77;;
19343;SDS011;9808;52.402;16.678;2024-02-14T04:47:07;46.67;;;22.53;;
19343;SDS011;9808;52.402;16.678;2024-02-14T04:49:36;55.00;;;24.33;;
19343;SDS011;9808;52.402;16.678;2024-02-14T04:52:03;49.30;;;23.53;;
19343;SDS011;9808;52.402;16.678;2024-02-14T04:54:31;59.83;;;27.27;;
19343;SDS011;9808;52.402;16.678;2024-02-14T04:56:58;62.73;;;27.97;;
19343;SDS011;9808;52.402;16.678;2024-02-14T04:59:28;60.63;;;29.47;;
19343;SDS011;9808;52.402;16.678;2024-02-14T05:01:55;74.77;;;33.57;;
19343;SDS011;9808;52.402;16.678;2024-02-14T05:04:23;70.23;;;34.33;;
19343;SDS011;9808;52.402;16.678;2024-02-14T05:06:50;61.67;;;30.37;;
19343;SDS011;9808;52.402;16.678;2024-02-14T05:09:24;71.07;;;33.33;;
19343;SDS011;9808;52.402;16.678;2024-02-14T05:11:51;65.10;;;32.83;;
19343;SDS011;9808;52.402;16.678;2024-02-14T05:14:19;62.87;;;32.50;;
19343;SDS011;9808;52.402;16.678;2024-02-14T05:16:46;57.47;;;30.53;;
19343;SDS011;9808;52.402;16.678;2024-02-14T05:19:13;53.43;;;27.63;;
19343;SDS011;9808;52.402;16.678;2024-02-14T05:21:41;53.67;;;27.57;;
19343;SDS011;9808;52.402;16.678;2024-02-14T05:24:08;53.20;;;25.70;;
19343;SDS011;9808;52.402;16.678;2024-02-14T05:26:35;50.07;;;24.33;;
19343;SDS011;9808;52.402;16.678;2024-02-14T05:29:03;55.33;;;25.87;;
19343;SDS011;9808;52.402;16.678;2024-02-14T05:31:44;58.10;;;30.57;;
19343;SDS011;9808;52.402;16.678;2024-02-14T05:34:12;61.43;;;30.83;;
19343;SDS011;9808;52.402;16.678;2024-02-14T05:36:40;57.43;;;27.20;;
19343;SDS011;9808;52.402;16.678;2024-02-14T05:39:09;52.03;;;24.63;;
19343;SDS011;9808;52.402;16.678;2024-02-14T05:41:36;46.87;;;24.50;;
19343;SDS011;9808;52.402;16.678;2024-02-14T05:44:03;54.60;;;26.27;;
19343;SDS011;9808;52.402;16.678;2024-02-14T05:46:30;55.87;;;26.30;;
19343;SDS011;9808;52.402;16.678;2024-02-14T05:48:58;53.90;;;26.07;;
19343;SDS011;9808;52.402;16.678;2024-02-14T05:51:25;49.57;;;25.43;;
19343;SDS011;9808;52.402;16.678;2024-02-14T05:53:53;63.80;;;26.37;;
19343;SDS011;9808;52.402;16.678;2024-02-14T05:56:20;46.57;;;23.47;;
19343;SDS011;9808;52.402;16.678;2024-02-14T05:58:47;47.37;;;21.80;;
19343;SDS011;9808;52.402;16.678;2024-02-14T06:01:14;47.53;;;24.07;;
19343;SDS011;9808;52.402;16.678;2024-02-14T06:03:42;41.27;;;21.80;;
19343;SDS011;9808;52.402;16.678;2024-02-14T06:06:09;39.97;;;22.07;;
19343;SDS011;9808;52.402;16.678;2024-02-14T06:08:37;42.77;;;21.50;;
19343;SDS011;9808;52.402;16.678;2024-02-14T06:11:04;42.30;;;21.50;;
19343;SDS011;9808;52.402;16.678;2024-02-14T06:13:32;42.43;;;21.43;;
19343;SDS011;9808;52.402;16.678;2024-02-14T06:16:00;46.57;;;21.17;;
19343;SDS011;9808;52.402;16.678;2024-02-14T06:18:27;43.27;;;22.97;;
19343;SDS011;9808;52.402;16.678;2024-02-14T06:20:54;43.87;;;20.97;;
19343;SDS011;9808;52.402;16.678;2024-02-14T06:23:21;45.90;;;20.77;;
19343;SDS011;9808;52.402;16.678;2024-02-14T06:25:49;45.20;;;20.50;;
19343;SDS011;9808;52.402;16.678;2024-02-14T06:28:16;50.83;;;24.23;;
19343;SDS011;9808;52.402;16.678;2024-02-14T06:30:43;57.80;;;27.87;;
19343;SDS011;9808;52.402;16.678;2024-02-14T06:33:10;64.00;;;28.70;;
19343;SDS011;9808;52.402;16.678;2024-02-14T06:35:37;66.57;;;27.53;;
19343;SDS011;9808;52.402;16.678;2024-02-14T06:38:05;57.57;;;25.43;;
19343;SDS011;9808;52.402;16.678;2024-02-14T06:40:32;56.47;;;26.97;;
19343;SDS011;9808;52.402;16.678;2024-02-14T06:43:00;64.47;;;29.27;;
19343;SDS011;9808;52.402;16.678;2024-02-14T06:45:28;65.97;;;27.60;;
19343;SDS011;9808;52.402;16.678;2024-02-14T06:47:55;56.30;;;25.37;;
19343;SDS011;9808;52.402;16.678;2024-02-14T06:50:22;52.73;;;25.50;;
19343;SDS011;9808;52.402;16.678;2024-02-14T06:52:52;46.33;;;23.27;;
19343;SDS011;9808;52.402;16.678;2024-02-14T06:55:19;49.40;;;23.07;;
19343;SDS011;9808;52.402;16.678;2024-02-14T06:57:47;47.00;;;21.93;;
19343;SDS011;9808;52.402;16.678;2024-02-14T07:00:14;54.87;;;22.43;;
19343;SDS011;9808;52.402;16.678;2024-02-14T07:02:41;48.97;;;22.80;;
19343;SDS011;9808;52.402;16.678;2024-02-14T07:05:10;53.47;;;22.53;;
19343;SDS011;9808;52.402;16.678;2024-02-14T07:07:41;51.73;;;22.83;;
19343;SDS011;9808;52.402;16.678;2024-02-14T07:10:08;57.07;;;22.40;;
19343;SDS011;9808;52.402;16.678;2024-02-14T07:12:36;50.43;;;22.17;;
19343;SDS011;9808;52.402;16.678;2024-02-14T07:15:03;51.30;;;22.50;;
19343;SDS011;9808;52.402;16.678;2024-02-14T07:17:31;50.97;;;25.37;;
19343;SDS011;9808;52.402;16.678;2024-02-14T07:19:59;56.17;;;28.70;;
19343;SDS011;9808;52.402;16.678;2024-02-14T07:22:26;56.33;;;28.63;;
19343;SDS011;9808;52.402;16.678;2024-02-14T07:24:53;58.27;;;28.03;;
19343;SDS011;9808;52.402;16.678;2024-02-14T07:27:21;51.63;;;23.10;;
19343;SDS011;9808;52.402;16.678;2024-02-14T07:29:50;49.93;;;23.27;;
19343;SDS011;9808;52.402;16.678;2024-02-14T07:32:17;52.33;;;22.60;;
19343;SDS011;9808;52.402;16.678;2024-02-14T07:34:45;50.30;;;23.23;;
19343;SDS011;9808;52.402;16.678;2024-02-14T07:37:12;52.47;;;23.53;;
19343;SDS011;9808;52.402;16.678;2024-02-14T07:39:41;55.90;;;23.77;;
19343;SDS011;9808;52.402;16.678;2024-02-14T07:42:09;53.87;;;24.77;;
19343;SDS011;9808;52.402;16.678;2024-02-14T07:44:36;53.37;;;22.67;;
19343;SDS011;9808;52.402;16.678;2024-02-14T07:47:04;61.00;;;25.30;;
19343;SDS011;9808;52.402;16.678;2024-02-14T07:49:33;48.30;;;23.23;;
19343;SDS011;9808;52.402;16.678;2024-02-14T07:52:00;41.17;;;20.97;;
19343;SDS011;9808;52.402;16.678;2024-02-14T07:54:27;52.00;;;22.87;;
19343;SDS011;9808;52.402;16.678;2024-02-14T07:56:54;57.90;;;23.27;;
19343;SDS011;9808;52.402;16.678;2024-02-14T07:59:22;51.70;;;23.07;;
19343;SDS011;9808;52.402;16.678;2024-02-14T08:01:49;51.40;;;22.57;;
19343;SDS011;9808;52.402;16.678;2024-02-14T08:04:17;49.00;;;23.73;;
19343;SDS011;9808;52.402;16.678;2024-02-14T08:06:44;47.77;;;24.23;;
19343;SDS011;9808;52.402;16.678;2024-02-14T08:09:12;45.17;;;22.47;;
19343;SDS011;9808;52.402;16.678;2024-02-14T08:11:39;46.43;;;21.77;;
19343;SDS011;9808;52.402;16.678;2024-02-14T08:14:07;50.63;;;22.83;;
19343;SDS011;9808;52.402;16.678;2024-02-14T08:16:34;51.83;;;22.90;;
19343;SDS011;9808;52.402;16.678;2024-02-14T08:19:02;45.53;;;22.00;;
19343;SDS011;9808;52.402;16.678;2024-02-14T08:21:30;49.00;;;23.43;;
19343;SDS011;9808;52.402;16.678;2024-02-14T08:23:58;49.00;;;22.37;;
19343;SDS011;9808;52.402;16.678;2024-02-14T08:26:27;47.97;;;22.87;;
19343;SDS011;9808;52.402;16.678;2024-02-14T08:28:55;51.43;;;23.43;;
19343;SDS011;9808;52.402;16.678;2024-02-14T08:31:22;42.47;;;21.67;;
19343;SDS011;9808;52.402;16.678;2024-02-14T08:33:49;47.20;;;22.83;;
19343;SDS011;9808;52.402;16.678;2024-02-14T08:36:17;52.90;;;23.17;;
19343;SDS011;9808;52.402;16.678;2024-02-14T08:38:46;50.23;;;23.20;;
19343;SDS011;9808;52.402;16.678;2024-02-14T08:41:13;48.80;;;23.67;;
19343;SDS011;9808;52.402;16.678;2024-02-14T08:43:41;52.67;;;25.20;;
19343;SDS011;9808;52.402;16.678;2024-02-14T08:46:12;43.90;;;22.73;;
19343;SDS011;9808;52.402;16.678;2024-02-14T08:48:42;44.50;;;22.40;;
19343;SDS011;9808;52.402;16.678;2024-02-14T08:51:15;43.73;;;21.30;;
19343;SDS011;9808;52.402;16.678;2024-02-14T08:53:42;46.47;;;22.17;;
19343;SDS011;9808;52.402;16.678;2024-02-14T08:56:15;40.20;;;20.27;;
19343;SDS011;9808;52.402;16.678;2024-02-14T08:58:42;45.43;;;21.33;;
19343;SDS011;9808;52.402;16.678;2024-02-14T09:01:10;41.77;;;19.70;;
19343;SDS011;9808;52.402;16.678;2024-02-14T09:03:41;37.17;;;19.00;;
19343;SDS011;9808;52.402;16.678;2024-02-14T09:06:14;42.57;;;19.77;;
19343;SDS011;9808;52.402;16.678;2024-02-14T09:08:43;40.83;;;19.00;;
19343;SDS011;9808;52.402;16.678;2024-02-14T09:11:10;42.50;;;19.03;;
19343;SDS011;9808;52.402;16.678;2024-02-14T09:13:38;41.33;;;20.00;;
19343;SDS011;9808;52.402;16.678;2024-02-14T09:16:10;34.83;;;17.70;;
19343;SDS011;9808;52.402;16.678;2024-02-14T09:18:37;36.13;;;17.83;;
19343;SDS011;9808;52.402;16.678;2024-02-14T09:21:05;36.47;;;16.73;;
19343;SDS011;9808;52.402;16.678;2024-02-14T09:23:33;40.07;;;18.30;;
19343;SDS011;9808;52.402;16.678;2024-02-14T09:26:01;36.27;;;16.67;;
19343;SDS011;9808;52.402;16.678;2024-02-14T09:28:29;37.80;;;16.17;;
19343;SDS011;9808;52.402;16.678;2024-02-14T09:30:56;36.10;;;16.07;;
19343;SDS011;9808;52.402;16.678;2024-02-14T09:33:24;34.00;;;16.67;;
19343;SDS011;9808;52.402;16.678;2024-02-14T09:35:51;41.33;;;15.97;;
19343;SDS011;9808;52.402;16.678;2024-02-14T09:38:19;30.10;;;15.50;;
19343;SDS011;9808;52.402;16.678;2024-02-14T09:40:47;32.13;;;15.40;;
19343;SDS011;9808;52.402;16.678;2024-02-14T09:45:49;33.17;;;14.40;;
19343;SDS011;9808;52.402;16.678;2024-02-14T09:48:17;32.03;;;14.63;;
19343;SDS011;9808;52.402;16.678;2024-02-14T09:50:45;31.83;;;15.00;;
19343;SDS011;9808;52.402;16.678;2024-02-14T09:53:15;28.10;;;14.40;;
19343;SDS011;9808;52.402;16.678;2024-02-14T09:55:43;31.93;;;14.93;;
19343;SDS011;9808;52.402;16.678;2024-02-14T09:58:12;31.87;;;15.00;;
19343;SDS011;9808;52.402;16.678;2024-02-14T10:00:40;26.40;;;13.77;;
19343;SDS011;9808;52.402;16.678;2024-02-14T10:03:07;30.33;;;14.47;;
19343;SDS011;9808;52.402;16.678;2024-02-14T10:05:35;32.20;;;13.53;;
19343;SDS011;9808;52.402;16.678;2024-02-14T10:08:02;29.53;;;15.07;;
19343;SDS011;9808;52.402;16.678;2024-02-14T10:10:33;39.33;;;15.17;;
19343;SDS011;9808;52.402;16.678;2024-02-14T10:13:03;27.07;;;14.33;;
19343;SDS011;9808;52.402;16.678;2024-02-14T10:15:31;29.10;;;14.63;;
19343;SDS011;9808;52.402;16.678;2024-02-14T10:17:59;28.60;;;13.87;;
19343;SDS011;9808;52.402;16.678;2024-02-14T10:20:27;35.83;;;13.87;;
19343;SDS011;9808;52.402;16.678;2024-02-14T10:23:03;34.00;;;14.30;;
19343;SDS011;9808;52.402;16.678;2024-02-14T10:25:30;30.53;;;14.53;;
19343;SDS011;9808;52.402;16.678;2024-02-14T10:28:02;31.27;;;13.37;;
19343;SDS011;9808;52.402;16.678;2024-02-14T10:30:30;26.57;;;13.87;;
19343;SDS011;9808;52.402;16.678;2024-02-14T10:32:58;26.40;;;12.47;;
19343;SDS011;9808;52.402;16.678;2024-02-14T10:35:39;32.00;;;13.80;;
19343;SDS011;9808;52.402;16.678;2024-02-14T10:38:08;30.87;;;12.80;;
19343;SDS011;9808;52.402;16.678;2024-02-14T10:40:36;41.93;;;13.30;;
19343;SDS011;9808;52.402;16.678;2024-02-14T10:43:06;29.40;;;13.27;;
19343;SDS011;9808;52.402;16.678;2024-02-14T10:45:38;29.70;;;12.57;;
19343;SDS011;9808;52.402;16.678;2024-02-14T10:48:06;30.30;;;12.47;;
19343;SDS011;9808;52.402;16.678;2024-02-14T10:50:35;31.23;;;13.63;;
19343;SDS011;9808;52.402;16.678;2024-02-14T10:53:04;28.10;;;12.77;;
19343;SDS011;9808;52.402;16.678;2024-02-14T10:55:33;26.23;;;11.47;;
19343;SDS011;9808;52.402;16.678;2024-02-14T10:58:01;29.10;;;12.83;;
19343;SDS011;9808;52.402;16.678;2024-02-14T11:00:29;29.07;;;13.40;;
19343;SDS011;9808;52.402;16.678;2024-02-14T11:02:58;25.87;;;13.03;;
19343;SDS011;9808;52.402;16.678;2024-02-14T11:05:27;26.00;;;12.17;;
19343;SDS011;9808;52.402;16.678;2024-02-14T11:07:54;24.90;;;11.27;;
19343;SDS011;9808;52.402;16.678;2024-02-14T11:10:22;24.90;;;11.47;;
19343;SDS011;9808;52.402;16.678;2024-02-14T11:12:50;23.67;;;11.60;;
19343;SDS011;9808;52.402;16.678;2024-02-14T11:15:19;21.47;;;10.97;;
19343;SDS011;9808;52.402;16.678;2024-02-14T11:17:47;25.10;;;11.17;;
19343;SDS011;9808;52.402;16.678;2024-02-14T11:20:16;24.17;;;11.50;;
19343;SDS011;9808;52.402;16.678;2024-02-14T11:22:54;23.90;;;11.13;;
19343;SDS011;9808;52.402;16.678;2024-02-14T11:25:23;21.20;;;9.97;;
19343;SDS011;9808;52.402;16.678;2024-02-14T11:27:50;24.87;;;10.83;;
19343;SDS011;9808;52.402;16.678;2024-02-14T11:30:36;23.80;;;10.37;;
19343;SDS011;9808;52.402;16.678;2024-02-14T11:35:49;22.13;;;8.83;;
19343;SDS011;9808;52.402;16.678;2024-02-14T11:38:21;20.50;;;8.90;;
19343;SDS011;9808;52.402;16.678;2024-02-14T11:40:49;18.77;;;9.70;;
19343;SDS011;9808;52.402;16.678;2024-02-14T11:43:19;25.27;;;11.73;;
19343;SDS011;9808;52.402;16.678;2024-02-14T11:45:47;23.93;;;12.03;;
19343;SDS011;9808;52.402;16.678;2024-02-14T11:48:18;23.27;;;11.27;;
19343;SDS011;9808;52.402;16.678;2024-02-14T11:50:47;24.33;;;11.93;;
19343;SDS011;9808;52.402;16.678;2024-02-14T11:53:15;23.20;;;10.67;;
19343;SDS011;9808;52.402;16.678;2024-02-14T11:55:44;25.33;;;10.70;;
19343;SDS011;9808;52.402;16.678;2024-02-14T11:58:17;21.90;;;10.50;;
19343;SDS011;9808;52.402;16.678;2024-02-14T12:00:45;25.00;;;11.43;;
19343;SDS011;9808;52.402;16.678;2024-02-14T12:03:15;18.47;;;9.60;;
19343;SDS011;9808;52.402;16.678;2024-02-14T12:05:43;24.77;;;10.50;;
19343;SDS011;9808;52.402;16.678;2024-02-14T12:08:11;26.57;;;11.77;;
19343;SDS011;9808;52.402;16.678;2024-02-14T12:10:39;24.83;;;11.57;;
19343;SDS011;9808;52.402;16.678;2024-02-14T12:13:10;24.50;;;10.47;;
19343;SDS011;9808;52.402;16.678;2024-02-14T12:15:45;21.30;;;9.60;;
19343;SDS011;9808;52.402;16.678;2024-02-14T12:18:13;22.80;;;10.93;;
19343;SDS011;9808;52.402;16.678;2024-02-14T12:20:41;20.67;;;10.37;;
19343;SDS011;9808;52.402;16.678;2024-02-14T12:23:14;27.13;;;11.80;;
19343;SDS011;9808;52.402;16.678;2024-02-14T12:25:44;31.23;;;12.90;;
19343;SDS011;9808;52.402;16.678;2024-02-14T12:28:15;24.03;;;11.97;;
19343;SDS011;9808;52.402;16.678;2024-02-14T12:30:47;23.70;;;9.90;;
19343;SDS011;9808;52.402;16.678;2024-02-14T12:33:16;17.90;;;10.00;;
19343;SDS011;9808;52.402;16.678;2024-02-14T12:35:45;23.90;;;10.10;;
19343;SDS011;9808;52.402;16.678;2024-02-14T12:38:13;22.00;;;10.23;;
19343;SDS011;9808;52.402;16.678;2024-02-14T12:40:40;21.33;;;10.27;;
19343;SDS011;9808;52.402;16.678;2024-02-14T12:43:08;20.10;;;9.73;;
19343;SDS011;9808;52.402;16.678;2024-02-14T12:45:37;23.10;;;9.57;;
19343;SDS011;9808;52.402;16.678;2024-02-14T12:48:07;18.57;;;8.73;;
19343;SDS011;9808;52.402;16.678;2024-02-14T12:50:35;17.80;;;9.77;;
19343;SDS011;9808;52.402;16.678;2024-02-14T12:53:06;21.23;;;9.73;;
19343;SDS011;9808;52.402;16.678;2024-02-14T12:55:34;22.93;;;10.63;;
19343;SDS011;9808;52.402;16.678;2024-02-14T12:58:02;18.23;;;9.43;;
19343;SDS011;9808;52.402;16.678;2024-02-14T13:00:30;25.33;;;10.20;;
19343;SDS011;9808;52.402;16.678;2024-02-14T13:02:59;18.60;;;9.43;;
19343;SDS011;9808;52.402;16.678;2024-02-14T13:05:27;28.50;;;9.60;;
19343;SDS011;9808;52.402;16.678;2024-02-14T13:07:54;21.10;;;9.43;;
19343;SDS011;9808;52.402;16.678;2024-02-14T13:10:22;23.33;;;10.23;;
19343;SDS011;9808;52.402;16.678;2024-02-14T13:12:49;18.83;;;9.90;;
19343;SDS011;9808;52.402;16.678;2024-02-14T13:15:17;20.90;;;9.60;;
19343;SDS011;9808;52.402;16.678;2024-02-14T13:17:44;21.33;;;9.57;;
19343;SDS011;9808;52.402;16.678;2024-02-14T13:20:12;22.47;;;9.77;;
19343;SDS011;9808;52.402;16.678;2024-02-14T13:22:41;21.23;;;9.87;;
19343;SDS011;9808;52.402;16.678;2024-02-14T13:25:09;23.30;;;10.47;;
19343;SDS011;9808;52.402;16.678;2024-02-14T13:27:36;21.40;;;10.37;;
19343;SDS011;9808;52.402;16.678;2024-02-14T13:30:07;23.03;;;9.53;;
19343;SDS011;9808;52.402;16.678;2024-02-14T13:32:34;22.03;;;10.37;;
19343;SDS011;9808;52.402;16.678;2024-02-14T13:35:02;22.20;;;9.70;;
19343;SDS011;9808;52.402;16.678;2024-02-14T13:37:29;22.63;;;10.17;;
19343;SDS011;9808;52.402;16.678;2024-02-14T13:39:57;27.67;;;10.97;;
19343;SDS011;9808;52.402;16.678;2024-02-14T13:42:25;22.63;;;10.00;;
19343;SDS011;9808;52.402;16.678;2024-02-14T13:44:52;21.33;;;10.07;;
19343;SDS011;9808;52.402;16.678;2024-02-14T13:47:20;19.57;;;9.67;;
19343;SDS011;9808;52.402;16.678;2024-02-14T13:49:49;22.60;;;10.43;;
19343;SDS011;9808;52.402;16.678;2024-02-14T13:52:18;23.73;;;10.90;;
19343;SDS011;9808;52.402;16.678;2024-02-14T13:54:46;22.17;;;11.40;;
19343;SDS011;9808;52.402;16.678;2024-02-14T13:57:13;28.93;;;12.03;;
19343;SDS011;9808;52.402;16.678;2024-02-14T13:59:44;25.63;;;12.47;;
19343;SDS011;9808;52.402;16.678;2024-02-14T14:02:11;28.23;;;13.03;;
19343;SDS011;9808;52.402;16.678;2024-02-14T14:04:39;32.93;;;14.60;;
19343;SDS011;9808;52.402;16.678;2024-02-14T14:07:06;30.80;;;14.10;;
19343;SDS011;9808;52.402;16.678;2024-02-14T14:09:34;30.70;;;15.20;;
19343;SDS011;9808;52.402;16.678;2024-02-14T14:12:02;28.83;;;14.10;;
19343;SDS011;9808;52.402;16.678;2024-02-14T14:14:29;33.90;;;15.20;;
19343;SDS011;9808;52.402;16.678;2024-02-14T14:16:56;37.70;;;17.30;;
19343;SDS011;9808;52.402;16.678;2024-02-14T14:19:24;38.80;;;17.60;;
19343;SDS011;9808;52.402;16.678;2024-02-14T14:21:51;36.97;;;18.37;;
19343;SDS011;9808;52.402;16.678;2024-02-14T14:24:19;43.03;;;19.53;;
19343;SDS011;9808;52.402;16.678;2024-02-14T14:26:46;46.00;;;20.90;;
19343;SDS011;9808;52.402;16.678;2024-02-14T14:29:13;49.13;;;21.67;;
19343;SDS011;9808;52.402;16.678;2024-02-14T14:31:41;45.03;;;20.37;;
19343;SDS011;9808;52.402;16.678;2024-02-14T14:34:08;49.50;;;20.57;;